• Join FlightAware (Why Join?)
  • Login
  • US Flag 
06:23AM EDT


 

Airport Tracker/Info


-or-


 

Live Flight TrackerFlight Track Log ✈ SWA1319 ✈ 16-Apr-2013 ✈ KOAK - KLAX

Flight Track Log - Related Links

Times and Time Zones

All times are in EDT time to prevent confusion due to time zone crossing. See the SWA1319 flight status page for this flight to view local times or setup timezone preferences in your user account.

Time Position Orientation Groundspeed Altitude Reporting Facility
EDT Latitude Longitude Course Direction KTS MPH feet Rate Location/Type
11:56PM 37.7333 -122.2500 288° West 143 165 1,500  Level Northern Cal TRACON
11:57PM 37.7500 -122.3167 288° West 235 270 4,400 3,720 Climbing Northern Cal TRACON
11:58PM 37.6903 -122.3583 209° Southwest 256 295 8,900 2,640 Climbing Oakland Center
11:59PM 37.6067 -122.3853 194° South 292 336 10,000 1,500 Climbing Oakland Center
12:00AM 37.5125 -122.4164 195° South 339 390 12,000 2,580 Climbing Oakland Center
12:01AM 37.4208 -122.3731 159° South 377 434 15,300 3,000 Climbing Oakland Center
12:02AM 37.3536 -122.2656 128° Southeast 391 450 18,200 2,640 Climbing Oakland Center
12:03AM 37.2744 -122.1558 132° Southeast 420 483 20,700 2,700 Climbing Oakland Center
12:04AM 37.1886 -122.0414 133° Southeast 445 512 23,800 2,700 Climbing Oakland Center
12:05AM 37.1047 -121.9267 132° Southeast 447 514 26,200 2,280 Climbing Oakland Center
12:06AM 36.9972 -121.7808 133° Southeast 474 545 28,500 1,320 Climbing Oakland Center
12:07AM 36.9042 -121.6531 132° Southeast 494 568 29,000 240 Climbing Oakland Center
12:08AM 36.8094 -121.5253 133° Southeast 503 579 29,000  Level Oakland Center
12:09AM 36.7228 -121.4067 132° Southeast 506 582 29,000  Level Oakland Center
12:10AM 36.6256 -121.2761 133° Southeast 513 590 29,000  Level Oakland Center
12:11AM 36.5300 -121.1464 132° Southeast 509 586 29,000  Level Oakland Center
12:12AM 36.4356 -121.0181 132° Southeast 505 581 29,000  Level Oakland Center
12:13AM 36.3386 -120.8889 133° Southeast 510 587 29,000  Level Oakland Center
12:14AM 36.2200 -120.7325 133° Southeast 519 597 29,000  Level Oakland Center
12:15AM 36.1200 -120.5994 133° Southeast 524 603 29,000  Level Oakland Center
12:16AM 36.0197 -120.4664 133° Southeast 528 608 29,000  Level Oakland Center
12:17AM 35.9189 -120.3350 133° Southeast 526 605 29,000  Level Oakland Center
12:18AM 35.8169 -120.2019 133° Southeast 530 610 29,000  Level Oakland Center
12:19AM 35.7156 -120.0694 133° Southeast 527 606 29,000  Level Oakland Center
12:20AM 35.6072 -119.9456 137° Southeast 525 604 29,000  Level Oakland Center
12:21AM 35.4861 -119.8403 145° Southeast 527 606 29,000  Level Oakland Center
12:22AM 35.3644 -119.7367 145° Southeast 527 606 29,000 -60 Level Oakland Center
12:23AM 35.2442 -119.6328 145° Southeast 527 606 28,900 -60 Descending Oakland Center
12:24AM 35.1264 -119.5317 145° Southeast 518 596 28,900 -480 Level Oakland Center
12:25AM 35.0089 -119.4314 145° Southeast 515 593 28,000 -960 Descending Oakland Center
12:26AM 34.8897 -119.3286 145° Southeast 520 598 27,000 -1,080 Descending Oakland Center
12:27AM 34.7722 -119.2300 145° Southeast 516 594 25,900 -1,140 Descending Oakland Center
12:28AM 34.6578 -119.1328 145° Southeast 507 583 24,800 -2,160 Descending Oakland Center
12:29AM 34.5167 -119.0164 146° Southeast 492 566 21,200 -3,180 Descending Los Angeles Center
12:30AM 34.4039 -118.9222 145° Southeast 487 560 17,900 -3,120 Descending Los Angeles Center
12:31AM 34.2928 -118.8583 155° Southeast 449 517 14,900 -2,760 Descending Los Angeles Center
12:32AM 34.1836 -118.8189 163° South 403 464 12,300 -1,800 Descending Los Angeles Center
12:33AM 34.0900 -118.7825 162° South 353 406 11,300 -1,080 Descending Los Angeles Center
12:34AM 34.0331 -118.6978 129° Southeast 319 367 10,200 -1,140 Descending Los Angeles Center
12:35AM 34.0236 -118.5989 97° East 299 344 9,000 -1,320 Descending Los Angeles Center
12:36AM 34.0136 -118.4997 97° East 278 320 7,600 -1,260 Descending Los Angeles Center
12:37AM 34.0142 -118.4275 89° East 263 303 6,500 -1,380 Descending Los Angeles Center
12:38AM 34.0217 -118.3386 84° East 263 303 4,900 -1,320 Descending Los Angeles Center
12:39AM 33.9953 -118.2639 113° Southeast 237 273 3,900 -1,200 Descending Los Angeles Center
12:41AM 33.9622 -118.3019 224° Southwest 191 220 2,500 -1,380 Descending Los Angeles Center
12:42AM 33.9581 -118.3461 264° West 155 178 1,100 -1,080 Descending Los Angeles Center
12:43AM 33.9544 -118.3878 264° West 137 158 400 -540 Descending Los Angeles Center
12:44AM 33.9508 -118.4258 263° West 132 152 100 -300 Descending Los Angeles Center
12:46AM 33.9425 -118.4081 228° Southwest  Level Estimated